Time;durP1;ratioP1;P1;durP2;ratioP2;P2;SDS_P1;SDS_P2;PMS_P1;PMS_P2;Temp;Humidity;BMP_temperature;BMP_pressure;BME280_temperature;BME280_humidity;BME280_pressure;Samples;Min_cycle;Max_cycle;Signal;HPM_P1;HPM_P2
2022/05/14 00:00:03;;;;;;;7.57;3.78;;;14.80;97.40;;;;;;2082857;28;20025;-70
2022/05/14 00:01:05;;;;;;;9.25;2.90;;;14.70;98.60;;;;;;2083827;28;20476;-70
2022/05/14 00:02:05;;;;;;;9.35;3.33;;;14.70;97.40;;;;;;2080506;28;20492;-70
2022/05/14 00:03:06;;;;;;;10.07;3.60;;;14.70;96.40;;;;;;2084973;28;20392;-70
2022/05/14 00:04:07;;;;;;;8.25;3.30;;;14.70;97.80;;;;;;2082601;28;20036;-70
2022/05/14 00:05:07;;;;;;;8.30;3.20;;;14.60;98.70;;;;;;2082727;28;20938;-70
2022/05/14 00:06:11;;;;;;;10.70;3.80;;;14.60;99.30;;;;;;2084258;28;20043;-70
2022/05/14 00:07:11;;;;;;;8.13;3.40;;;14.60;99.40;;;;;;2081248;28;20022;-70
2022/05/14 00:08:13;;;;;;;6.50;3.38;;;14.60;99.60;;;;;;2081539;28;20032;-70
2022/05/14 00:09:13;;;;;;;7.95;3.47;;;14.60;99.80;;;;;;2084544;28;20040;-70
2022/05/14 00:10:14;;;;;;;7.63;3.65;;;14.60;99.90;;;;;;2084053;28;20105;-70
2022/05/14 00:13:54;;;;;;;8.23;3.00;;;14.50;99.60;;;;;;2082384;28;20026;-70
2022/05/14 00:14:54;;;;;;;9.07;3.40;;;14.40;99.90;;;;;;2082361;28;20036;-70
2022/05/14 00:15:55;;;;;;;6.90;3.40;;;14.40;99.90;;;;;;2081493;28;20049;-70
2022/05/14 00:16:56;;;;;;;7.68;3.17;;;14.40;99.90;;;;;;2082301;28;20025;-70
2022/05/14 00:17:56;;;;;;;6.13;3.70;;;14.30;99.90;;;;;;2081657;28;20049;-70
2022/05/14 00:18:58;;;;;;;5.88;3.30;;;14.30;99.90;;;;;;2082738;28;20097;-70
2022/05/14 00:19:58;;;;;;;9.38;4.30;;;14.30;99.90;;;;;;2080472;28;20757;-70
2022/05/14 00:20:59;;;;;;;6.63;3.53;;;14.30;99.90;;;;;;2081881;28;20400;-70
2022/05/14 00:22:00;;;;;;;9.07;4.07;;;14.30;99.90;;;;;;2081251;28;20051;-70
2022/05/14 00:23:00;;;;;;;10.15;4.13;;;14.20;99.90;;;;;;2082879;28;20088;-70
2022/05/14 00:24:03;;;;;;;8.52;3.67;;;14.20;99.90;;;;;;2082463;28;20021;-71
2022/05/14 00:25:04;;;;;;;9.82;3.85;;;14.20;99.90;;;;;;2084035;28;20065;-70
2022/05/14 00:26:04;;;;;;;8.57;4.40;;;14.20;99.90;;;;;;2079943;28;20033;-70
2022/05/14 00:27:05;;;;;;;11.30;3.38;;;14.10;99.90;;;;;;2081571;28;20056;-70
2022/05/14 00:28:06;;;;;;;11.50;4.32;;;14.10;99.90;;;;;;2081252;28;20402;-70
2022/05/14 00:29:07;;;;;;;9.43;3.95;;;14.10;99.90;;;;;;2081557;28;20033;-70
2022/05/14 00:30:10;;;;;;;8.93;3.67;;;14.10;99.90;;;;;;2081188;28;20025;-70
2022/05/14 00:31:11;;;;;;;8.35;4.43;;;14.00;99.90;;;;;;2081497;28;20030;-70
2022/05/14 00:32:11;;;;;;;8.32;3.88;;;14.00;99.90;;;;;;2082619;28;20044;-70
2022/05/14 00:33:12;;;;;;;8.93;4.22;;;14.00;99.90;;;;;;2081644;28;20107;-70
2022/05/14 00:34:13;;;;;;;5.65;3.45;;;14.00;99.90;;;;;;2081831;28;20537;-70
2022/05/14 00:35:14;;;;;;;8.80;4.22;;;13.90;99.90;;;;;;2078172;28;20021;-70
2022/05/14 00:36:15;;;;;;;12.40;3.95;;;13.90;99.90;;;;;;2076841;28;20024;-70
2022/05/14 00:37:16;;;;;;;7.53;3.83;;;13.90;99.90;;;;;;2074851;28;20064;-70
2022/05/14 00:38:17;;;;;;;6.93;3.90;;;13.90;99.90;;;;;;2076480;28;20615;-70
2022/05/14 00:39:17;;;;;;;8.38;4.10;;;13.90;99.90;;;;;;2081048;28;20463;-70
2022/05/14 00:40:23;;;;;;;9.00;3.90;;;13.90;99.90;;;;;;2081502;28;20071;-71
2022/05/14 00:41:24;;;;;;;8.80;4.10;;;13.80;99.90;;;;;;2083511;28;20048;-70
2022/05/14 00:42:25;;;;;;;12.05;4.35;;;13.80;99.90;;;;;;2084876;28;20063;-70
2022/05/14 00:43:27;;;;;;;10.07;3.75;;;13.80;99.90;;;;;;2082536;28;20017;-70
2022/05/14 00:44:27;;;;;;;8.48;3.75;;;13.80;99.90;;;;;;2081984;28;20055;-70
2022/05/14 00:45:30;;;;;;;8.90;4.03;;;13.70;99.90;;;;;;2080854;28;20025;-70
2022/05/14 00:46:48;;;;;;;16.58;4.50;;;13.70;99.90;;;;;;2083262;28;20025;-70
2022/05/14 00:47:52;;;;;;;8.07;3.53;;;13.70;99.90;;;;;;2082847;28;20013;-70
2022/05/14 00:48:55;;;;;;;5.75;3.70;;;13.60;99.90;;;;;;2082834;28;20027;-70
2022/05/14 00:49:55;;;;;;;7.80;4.53;;;13.70;99.90;;;;;;2081732;28;20096;-70
2022/05/14 00:50:57;;;;;;;7.60;3.85;;;13.60;99.90;;;;;;2083415;28;20028;-70
2022/05/14 00:52:00;;;;;;;10.93;4.65;;;13.60;99.90;;;;;;2081025;28;20477;-70
2022/05/14 00:53:18;;;;;;;9.10;3.90;;;13.60;99.90;;;;;;2082722;28;20026;-71
2022/05/14 00:54:27;;;;;;;6.07;3.25;;;13.60;99.90;;;;;;2082448;28;20028;-71
2022/05/14 00:55:28;;;;;;;8.23;3.70;;;13.50;99.90;;;;;;2080247;28;20527;-71
2022/05/14 00:56:52;;;;;;;7.82;4.20;;;13.60;99.90;;;;;;2079999;28;20032;-71
2022/05/14 00:57:53;;;;;;;9.80;4.15;;;13.50;99.90;;;;;;2082727;28;20017;-71
2022/05/14 00:59:02;;;;;;;7.50;4.10;;;13.50;99.90;;;;;;2081405;28;20037;-71
2022/05/14 01:00:11;;;;;;;11.43;4.18;;;13.50;99.90;;;;;;2080684;28;20033;-70
2022/05/14 01:01:11;;;;;;;7.07;3.92;;;13.50;99.90;;;;;;2082797;28;20048;-70
2022/05/14 01:02:12;;;;;;;8.10;4.10;;;13.40;99.90;;;;;;2079896;28;20021;-70
2022/05/14 01:03:12;;;;;;;9.07;4.40;;;13.40;99.90;;;;;;2084493;28;20029;-71
2022/05/14 01:04:14;;;;;;;11.57;4.25;;;13.40;99.90;;;;;;2080764;28;20044;-70
2022/05/14 01:05:18;;;;;;;9.52;3.88;;;13.40;99.90;;;;;;2080856;28;20025;-70
2022/05/14 01:06:20;;;;;;;10.52;4.80;;;13.40;99.90;;;;;;2082838;28;20021;-70
2022/05/14 01:07:22;;;;;;;5.72;3.95;;;13.40;99.90;;;;;;2084070;28;20025;-70
2022/05/14 01:08:22;;;;;;;6.10;3.40;;;13.40;99.90;;;;;;2081970;28;20743;-70
2022/05/14 01:09:24;;;;;;;10.10;4.50;;;13.40;99.90;;;;;;2081703;28;20021;-70
2022/05/14 01:10:33;;;;;;;6.75;3.88;;;13.30;99.90;;;;;;2086568;28;20040;-70
2022/05/14 01:11:36;;;;;;;8.82;4.13;;;13.30;99.90;;;;;;2082097;28;20147;-70
2022/05/14 01:12:43;;;;;;;6.45;3.75;;;13.30;99.90;;;;;;2081537;28;20513;-70
2022/05/14 01:13:43;;;;;;;7.75;4.70;;;13.30;99.90;;;;;;2082754;28;20028;-70
2022/05/14 01:14:44;;;;;;;9.70;5.22;;;13.30;99.90;;;;;;2080560;28;20095;-71
2022/05/14 01:15:48;;;;;;;8.70;4.30;;;13.30;99.90;;;;;;2083381;28;20033;-71
2022/05/14 01:16:50;;;;;;;8.20;4.05;;;13.30;99.90;;;;;;2081846;28;20028;-70
2022/05/14 01:17:52;;;;;;;8.38;4.85;;;13.30;99.90;;;;;;2082384;28;20014;-70
2022/05/14 01:18:52;;;;;;;10.60;5.28;;;13.30;99.90;;;;;;2084498;28;20128;-70
2022/05/14 01:19:53;;;;;;;10.30;4.97;;;13.20;99.90;;;;;;2085701;28;20026;-70
2022/05/14 01:20:58;;;;;;;7.65;4.95;;;13.20;99.90;;;;;;2081398;28;20026;-71
2022/05/14 01:22:34;;;;;;;8.90;4.47;;;13.20;99.90;;;;;;2081353;28;20095;-71
2022/05/14 01:26:35;;;;;;;13.55;4.50;;;13.10;99.90;;;;;;2082310;28;20028;-70
2022/05/14 01:27:40;;;;;;;9.10;4.03;;;13.10;99.90;;;;;;2083009;28;20384;-70
2022/05/14 01:28:40;;;;;;;13.60;5.78;;;13.10;99.90;;;;;;2080232;28;20041;-70
2022/05/14 01:29:42;;;;;;;11.73;5.05;;;13.00;99.90;;;;;;2081917;28;20114;-71
2022/05/14 01:30:48;;;;;;;8.07;4.32;;;13.10;99.90;;;;;;2080416;28;20029;-70
2022/05/14 01:31:50;;;;;;;10.23;4.68;;;13.00;99.90;;;;;;2082862;28;20021;-70
2022/05/14 01:33:04;;;;;;;7.07;4.22;;;13.00;99.90;;;;;;2083602;28;20500;-70
2022/05/14 01:34:08;;;;;;;6.28;4.15;;;13.00;99.90;;;;;;2075807;28;20033;-70
2022/05/14 01:35:09;;;;;;;10.68;4.70;;;13.00;99.90;;;;;;2080973;28;20029;-70
2022/05/14 01:36:10;;;;;;;9.90;5.20;;;13.00;99.90;;;;;;2085618;28;20032;-70
2022/05/14 01:37:11;;;;;;;9.15;5.05;;;13.00;99.90;;;;;;2084106;28;20071;-70
2022/05/14 01:38:11;;;;;;;9.65;4.90;;;13.00;99.90;;;;;;2082264;28;20010;-70
2022/05/14 01:39:12;;;;;;;7.85;5.40;;;13.00;99.90;;;;;;2083509;28;20087;-70
2022/05/14 01:40:13;;;;;;;9.65;5.25;;;13.00;99.90;;;;;;2082648;28;20022;-70
2022/05/14 01:41:13;;;;;;;9.70;5.60;;;13.00;99.90;;;;;;2085533;28;20021;-70
2022/05/14 01:42:14;;;;;;;11.20;4.78;;;12.90;99.90;;;;;;2083377;28;20561;-71
2022/05/14 01:43:15;;;;;;;5.97;4.00;;;12.90;99.90;;;;;;2083947;28;20113;-70
2022/05/14 01:44:15;;;;;;;10.82;5.03;;;12.90;99.90;;;;;;2085020;28;20021;-70
2022/05/14 01:45:16;;;;;;;11.95;5.57;;;12.90;99.90;;;;;;2081993;28;20021;-70
2022/05/14 01:46:17;;;;;;;9.05;5.30;;;12.90;99.90;;;;;;2083917;28;20389;-71
2022/05/14 01:47:18;;;;;;;10.35;4.43;;;12.90;99.90;;;;;;2083035;28;20492;-70
2022/05/14 01:48:18;;;;;;;8.60;5.20;;;12.90;99.90;;;;;;2082734;28;20392;-70
2022/05/14 01:49:19;;;;;;;10.00;4.85;;;12.90;99.90;;;;;;2084070;28;20063;-71
2022/05/14 01:50:20;;;;;;;9.70;4.97;;;12.90;99.90;;;;;;2084453;28;20075;-70
2022/05/14 01:51:20;;;;;;;10.68;5.03;;;12.90;99.90;;;;;;2081476;28;20501;-71
2022/05/14 01:52:21;;;;;;;6.32;4.43;;;12.90;99.90;;;;;;2083896;28;20445;-70
2022/05/14 01:53:22;;;;;;;7.78;5.47;;;12.90;99.90;;;;;;2081988;28;20033;-70
2022/05/14 01:54:22;;;;;;;10.75;4.30;;;12.90;99.90;;;;;;2084836;28;20025;-70
2022/05/14 01:55:23;;;;;;;10.85;4.85;;;12.90;99.90;;;;;;2082226;28;20018;-70
2022/05/14 01:56:24;;;;;;;8.55;4.90;;;12.90;99.90;;;;;;2083211;28;20018;-70
2022/05/14 01:57:24;;;;;;;7.20;4.38;;;12.80;99.90;;;;;;2082813;28;20021;-71
2022/05/14 01:58:37;;;;;;;7.05;5.22;;;12.80;99.90;;;;;;2085318;28;20017;-70
2022/05/14 01:59:38;;;;;;;7.00;4.85;;;12.80;99.90;;;;;;2083730;28;20380;-70
2022/05/14 02:00:38;;;;;;;9.68;4.88;;;12.80;99.90;;;;;;2084940;28;20151;-70
2022/05/14 02:01:39;;;;;;;8.27;4.55;;;12.80;99.90;;;;;;2081204;28;20056;-70
2022/05/14 02:02:40;;;;;;;8.70;4.95;;;12.80;99.90;;;;;;2083377;28;20027;-70
2022/05/14 02:03:42;;;;;;;8.65;5.05;;;12.80;99.90;;;;;;2082534;28;20603;-71
2022/05/14 02:04:43;;;;;;;8.25;5.10;;;12.80;99.90;;;;;;2082530;28;20017;-70
2022/05/14 02:05:44;;;;;;;8.27;4.50;;;12.80;99.90;;;;;;2085262;28;20056;-70
2022/05/14 02:06:45;;;;;;;8.85;4.57;;;12.80;99.90;;;;;;2082817;28;20055;-71
2022/05/14 02:07:45;;;;;;;7.78;4.82;;;12.80;99.90;;;;;;2081593;28;20046;-70
2022/05/14 02:08:46;;;;;;;9.10;4.65;;;12.70;99.90;;;;;;2082588;28;20747;-70
2022/05/14 02:09:46;;;;;;;10.32;5.13;;;12.80;99.90;;;;;;2082231;28;20136;-70
2022/05/14 02:10:47;;;;;;;10.10;4.63;;;12.70;99.90;;;;;;2085035;28;20024;-70
2022/05/14 02:11:47;;;;;;;8.27;5.05;;;12.70;99.90;;;;;;2082612;28;20100;-70
2022/05/14 02:12:48;;;;;;;5.82;4.10;;;12.70;99.90;;;;;;2082216;28;20890;-70
2022/05/14 02:13:50;;;;;;;7.88;4.95;;;12.70;99.90;;;;;;2085323;28;20009;-70
2022/05/14 02:14:50;;;;;;;8.07;4.65;;;12.70;99.90;;;;;;2087417;28;20087;-71
2022/05/14 02:15:52;;;;;;;9.05;4.70;;;12.70;99.90;;;;;;2084112;28;20021;-71
2022/05/14 02:16:52;;;;;;;9.35;4.97;;;12.70;99.90;;;;;;2084815;28;20026;-71
2022/05/14 02:17:53;;;;;;;7.80;4.13;;;12.70;99.90;;;;;;2083515;28;20037;-71
2022/05/14 02:18:53;;;;;;;8.82;4.70;;;12.70;99.90;;;;;;2084316;28;20036;-70
2022/05/14 02:19:54;;;;;;;6.55;4.43;;;12.70;99.90;;;;;;2083880;28;20492;-71
2022/05/14 02:20:55;;;;;;;8.23;4.53;;;12.70;99.90;;;;;;2086547;28;20112;-71
2022/05/14 02:21:55;;;;;;;14.07;4.68;;;12.70;99.90;;;;;;2084678;28;20029;-70
2022/05/14 02:22:56;;;;;;;8.30;5.30;;;12.60;99.90;;;;;;2081789;28;20030;-70
2022/05/14 02:23:57;;;;;;;7.75;4.78;;;12.60;99.90;;;;;;2085479;28;20016;-70
2022/05/14 02:24:57;;;;;;;7.63;4.60;;;12.60;99.90;;;;;;2082688;28;20048;-70
2022/05/14 02:25:58;;;;;;;12.18;5.07;;;12.60;99.90;;;;;;2081992;28;20049;-70
2022/05/14 02:26:58;;;;;;;9.00;5.45;;;12.60;99.90;;;;;;2082004;28;20036;-70
2022/05/14 02:27:59;;;;;;;8.43;5.00;;;12.60;99.90;;;;;;2082262;28;20525;-71
2022/05/14 02:28:59;;;;;;;9.93;4.70;;;12.60;99.90;;;;;;2085445;28;20025;-71
2022/05/14 02:30:00;;;;;;;10.45;5.85;;;12.60;99.90;;;;;;2081676;28;20075;-70
2022/05/14 02:31:01;;;;;;;10.57;6.15;;;12.60;99.90;;;;;;2081917;28;20104;-70
2022/05/14 02:32:01;;;;;;;7.63;5.15;;;12.60;99.90;;;;;;2084478;28;20025;-70
2022/05/14 02:33:02;;;;;;;8.60;4.63;;;12.60;99.90;;;;;;2082622;28;20032;-70
2022/05/14 02:34:03;;;;;;;10.38;4.80;;;12.60;99.90;;;;;;2083600;28;20037;-70
2022/05/14 02:35:04;;;;;;;9.73;4.95;;;12.60;99.90;;;;;;2083031;28;20056;-70
2022/05/14 02:36:10;;;;;;;9.52;4.75;;;12.50;99.90;;;;;;2083536;28;20104;-70
2022/05/14 02:37:10;;;;;;;11.18;5.50;;;12.50;99.90;;;;;;2081921;28;20017;-71
2022/05/14 02:38:12;;;;;;;11.18;5.90;;;12.50;99.90;;;;;;2084745;28;20021;-71
2022/05/14 02:39:13;;;;;;;12.00;6.72;;;12.50;99.90;;;;;;2082245;28;20021;-70
2022/05/14 02:40:14;;;;;;;10.43;5.80;;;12.50;99.90;;;;;;2082945;28;20017;-71
2022/05/14 02:41:14;;;;;;;11.27;6.22;;;12.50;99.90;;;;;;2086007;28;20025;-71
2022/05/14 02:42:16;;;;;;;10.93;5.40;;;12.50;99.90;;;;;;2081984;28;20017;-71
2022/05/14 02:43:16;;;;;;;11.05;5.45;;;12.50;99.90;;;;;;2082120;28;20494;-71
2022/05/14 02:44:17;;;;;;;12.27;5.65;;;12.50;99.90;;;;;;2083309;28;20400;-71
2022/05/14 02:45:18;;;;;;;10.10;5.95;;;12.50;99.90;;;;;;2083422;28;20021;-71
2022/05/14 02:46:18;;;;;;;7.97;5.22;;;12.50;99.90;;;;;;2084130;28;20026;-71
2022/05/14 02:47:19;;;;;;;9.13;5.40;;;12.50;99.90;;;;;;2084649;28;20041;-71
2022/05/14 02:48:22;;;;;;;9.70;5.00;;;12.50;99.90;;;;;;2080330;28;20025;-71
2022/05/14 02:49:23;;;;;;;9.20;5.53;;;12.50;99.90;;;;;;2081134;28;20064;-70
2022/05/14 02:50:24;;;;;;;11.75;6.13;;;12.50;99.90;;;;;;2081920;28;20037;-70
2022/05/14 02:51:24;;;;;;;11.13;6.10;;;12.40;99.90;;;;;;2083944;28;20017;-71
2022/05/14 02:52:25;;;;;;;9.45;5.32;;;12.50;99.90;;;;;;2083315;28;20474;-70
2022/05/14 02:53:26;;;;;;;10.68;5.88;;;12.40;99.90;;;;;;2081635;28;20418;-70
2022/05/14 02:54:27;;;;;;;8.15;5.65;;;12.40;99.90;;;;;;2087648;28;20021;-70
2022/05/14 02:55:29;;;;;;;9.65;5.38;;;12.40;99.90;;;;;;2083923;28;20029;-71
2022/05/14 02:56:30;;;;;;;11.27;5.55;;;12.40;99.90;;;;;;2081908;28;20033;-71
2022/05/14 02:57:30;;;;;;;9.88;5.10;;;12.40;99.90;;;;;;2082818;28;20017;-71
2022/05/14 02:59:50;;;;;;;10.73;5.97;;;12.40;99.90;;;;;;2083588;28;20029;-70
2022/05/14 03:00:51;;;;;;;7.90;5.13;;;12.40;99.90;;;;;;2080934;28;20033;-70
2022/05/14 03:01:52;;;;;;;9.02;5.35;;;12.40;99.90;;;;;;2080607;28;20548;-70
2022/05/14 03:02:52;;;;;;;10.98;5.30;;;12.40;99.90;;;;;;2084928;28;20504;-70
2022/05/14 03:03:53;;;;;;;8.50;5.18;;;12.40;99.90;;;;;;2083196;28;20033;-70
2022/05/14 03:04:54;;;;;;;11.02;5.40;;;12.40;99.90;;;;;;2082225;28;20033;-70
2022/05/14 03:05:54;;;;;;;6.53;5.32;;;12.40;99.90;;;;;;2081715;28;20092;-70
2022/05/14 03:06:56;;;;;;;10.57;5.32;;;12.30;99.90;;;;;;2083333;28;20029;-70
2022/05/14 03:07:57;;;;;;;9.20;4.90;;;12.40;99.90;;;;;;2082816;28;20025;-70
2022/05/14 03:08:57;;;;;;;9.40;5.13;;;12.40;99.90;;;;;;2081711;28;20083;-70
2022/05/14 03:09:58;;;;;;;11.15;6.25;;;12.30;99.90;;;;;;2081650;28;20100;-70
2022/05/14 03:10:58;;;;;;;12.65;6.85;;;12.30;99.90;;;;;;2085686;28;20037;-71
2022/05/14 03:11:59;;;;;;;11.15;5.72;;;12.30;99.90;;;;;;2082122;28;20029;-71
2022/05/14 03:13:03;;;;;;;9.77;5.50;;;12.30;99.90;;;;;;2082792;28;20056;-71
2022/05/14 03:14:03;;;;;;;13.30;6.07;;;12.30;99.90;;;;;;2082581;28;20021;-71
2022/05/14 03:15:05;;;;;;;12.52;6.10;;;12.30;99.90;;;;;;2081996;28;20116;-71
2022/05/14 03:16:06;;;;;;;10.73;4.97;;;12.30;99.90;;;;;;2080869;28;20105;-71
2022/05/14 03:17:07;;;;;;;7.78;5.43;;;12.30;99.90;;;;;;2081824;28;20053;-70
2022/05/14 03:18:08;;;;;;;11.23;5.32;;;12.30;99.90;;;;;;2081681;28;20083;-71
2022/05/14 03:19:09;;;;;;;8.68;5.20;;;12.30;99.90;;;;;;2081113;28;20130;-71
2022/05/14 03:20:12;;;;;;;11.05;5.47;;;12.30;99.90;;;;;;2082358;28;20017;-71
2022/05/14 03:21:13;;;;;;;10.80;6.90;;;12.30;99.90;;;;;;2082148;28;20022;-71
2022/05/14 03:22:13;;;;;;;14.13;6.68;;;12.30;99.90;;;;;;2081682;28;20054;-71
2022/05/14 03:23:15;;;;;;;12.98;6.25;;;12.30;99.90;;;;;;2080623;28;20031;-70
2022/05/14 03:24:16;;;;;;;10.95;6.38;;;12.30;99.90;;;;;;2080943;28;20535;-70
2022/05/14 03:25:16;;;;;;;9.98;6.30;;;12.30;99.90;;;;;;2084055;28;20024;-71
2022/05/14 03:26:17;;;;;;;13.27;6.68;;;12.30;99.90;;;;;;2081581;28;20024;-70
2022/05/14 03:27:17;;;;;;;7.30;4.93;;;12.30;99.90;;;;;;2084446;28;20013;-70
2022/05/14 03:28:18;;;;;;;10.80;5.57;;;12.30;99.90;;;;;;2083700;28;20112;-71
2022/05/14 03:29:18;;;;;;;14.07;5.10;;;12.30;99.90;;;;;;2081719;28;20024;-71
2022/05/14 03:30:19;;;;;;;11.30;6.05;;;12.30;99.90;;;;;;2082503;28;20071;-70
2022/05/14 03:31:20;;;;;;;10.82;6.22;;;12.30;99.90;;;;;;2081627;28;20028;-71
2022/05/14 03:32:21;;;;;;;11.40;6.20;;;12.40;99.90;;;;;;2082106;28;20018;-71
2022/05/14 03:33:22;;;;;;;15.75;6.13;;;12.30;99.90;;;;;;2082168;28;20499;-71
2022/05/14 03:34:24;;;;;;;10.13;5.80;;;12.30;99.90;;;;;;2081589;28;20435;-71
2022/05/14 03:35:24;;;;;;;11.70;7.07;;;12.30;99.90;;;;;;2083458;28;20032;-71
2022/05/14 03:36:25;;;;;;;12.20;7.03;;;12.40;99.90;;;;;;2082365;28;20064;-70
2022/05/14 03:37:26;;;;;;;15.70;7.22;;;12.40;99.90;;;;;;2081218;28;20017;-70
2022/05/14 03:38:26;;;;;;;16.55;7.63;;;12.40;99.90;;;;;;2082359;28;20409;-71
2022/05/14 03:39:27;;;;;;;13.25;7.13;;;12.40;99.90;;;;;;2082783;28;20080;-70
2022/05/14 03:40:27;;;;;;;14.13;7.07;;;12.40;99.90;;;;;;2082527;28;20378;-71
2022/05/14 03:41:28;;;;;;;11.38;7.10;;;12.40;99.90;;;;;;2082368;28;20029;-70
2022/05/14 03:42:31;;;;;;;12.60;7.10;;;12.40;99.90;;;;;;2081756;28;20543;-70
2022/05/14 03:43:32;;;;;;;13.40;6.47;;;12.40;99.90;;;;;;2081436;28;20654;-71
2022/05/14 03:44:32;;;;;;;13.20;6.20;;;12.40;99.90;;;;;;2083524;28;20714;-70
2022/05/14 03:45:33;;;;;;;10.35;6.70;;;12.40;99.90;;;;;;2080770;28;20500;-71
2022/05/14 03:46:34;;;;;;;13.45;6.78;;;12.40;99.90;;;;;;2084193;28;20119;-71
2022/05/14 03:47:35;;;;;;;13.32;6.65;;;12.40;99.90;;;;;;2082004;28;20103;-71
2022/05/14 03:48:36;;;;;;;15.38;6.78;;;12.40;99.90;;;;;;2081841;28;20068;-71
2022/05/14 03:49:37;;;;;;;11.52;6.32;;;12.40;99.90;;;;;;2085918;28;20016;-71
2022/05/14 03:50:37;;;;;;;13.02;6.20;;;12.40;99.90;;;;;;2082982;28;20034;-71
2022/05/14 03:51:38;;;;;;;12.93;6.40;;;12.40;99.90;;;;;;2081885;28;20021;-71
2022/05/14 03:52:39;;;;;;;12.00;6.13;;;12.40;99.90;;;;;;2082323;28;20024;-71
2022/05/14 03:53:40;;;;;;;9.43;5.55;;;12.40;99.90;;;;;;2081293;28;20067;-71
2022/05/14 03:54:43;;;;;;;13.48;6.72;;;12.40;99.90;;;;;;2083640;28;20089;-71
2022/05/14 03:55:43;;;;;;;11.52;6.30;;;12.40;99.90;;;;;;2079762;28;20435;-71
2022/05/14 03:56:44;;;;;;;8.23;4.97;;;12.40;99.90;;;;;;2083130;28;20025;-71
2022/05/14 03:57:44;;;;;;;12.27;5.88;;;12.40;99.90;;;;;;2084040;28;20060;-71
2022/05/14 03:58:45;;;;;;;11.77;6.72;;;12.40;99.90;;;;;;2083698;28;20464;-71
2022/05/14 03:59:46;;;;;;;11.43;6.63;;;12.40;99.90;;;;;;2081932;28;20547;-71
2022/05/14 04:00:47;;;;;;;10.40;5.25;;;12.50;99.90;;;;;;2081713;28;20052;-71
2022/05/14 04:01:47;;;;;;;11.32;6.30;;;12.50;99.90;;;;;;2080633;28;20021;-71
2022/05/14 04:02:48;;;;;;;11.02;6.97;;;12.50;99.90;;;;;;2082780;28;20056;-71
2022/05/14 04:03:49;;;;;;;11.10;7.03;;;12.50;99.90;;;;;;2080962;28;20021;-71
2022/05/14 04:04:50;;;;;;;9.82;6.75;;;12.50;99.90;;;;;;2083209;28;20485;-71
2022/05/14 04:05:51;;;;;;;6.93;5.72;;;12.50;99.90;;;;;;2082762;28;20017;-71
2022/05/14 04:06:52;;;;;;;11.68;6.75;;;12.50;99.90;;;;;;2082683;28;20017;-71
2022/05/14 04:07:53;;;;;;;14.15;7.13;;;12.50;99.90;;;;;;2080559;28;20024;-71
2022/05/14 04:08:54;;;;;;;12.70;7.03;;;12.50;99.90;;;;;;2081653;28;20033;-71
2022/05/14 04:09:55;;;;;;;9.80;7.15;;;12.50;99.90;;;;;;2082653;28;20040;-71
2022/05/14 04:10:56;;;;;;;11.23;7.10;;;12.50;99.90;;;;;;2082130;28;20033;-70
2022/05/14 04:11:56;;;;;;;9.95;6.88;;;12.50;99.90;;;;;;2083910;28;20018;-70
2022/05/14 04:12:58;;;;;;;10.43;7.03;;;12.50;99.90;;;;;;2086803;28;20032;-70
2022/05/14 04:13:59;;;;;;;14.30;7.22;;;12.60;99.90;;;;;;2085203;28;20036;-70
2022/05/14 04:15:00;;;;;;;10.32;7.85;;;12.60;99.90;;;;;;2084680;28;20032;-71
2022/05/14 04:16:00;;;;;;;16.10;8.30;;;12.50;99.90;;;;;;2081103;28;20040;-70
2022/05/14 04:17:01;;;;;;;16.00;7.60;;;12.60;99.90;;;;;;2082978;28;20041;-70
2022/05/14 04:18:02;;;;;;;13.10;8.23;;;12.60;99.90;;;;;;2081427;28;20313;-70
2022/05/14 04:19:03;;;;;;;13.90;8.27;;;12.60;99.90;;;;;;2081154;28;20026;-70
2022/05/14 04:20:04;;;;;;;15.57;7.45;;;12.60;99.90;;;;;;2081192;28;20025;-70
2022/05/14 04:21:05;;;;;;;14.07;7.90;;;12.60;99.90;;;;;;2081011;28;20497;-70
2022/05/14 04:22:06;;;;;;;12.77;7.35;;;12.60;99.90;;;;;;2080821;28;20658;-70
2022/05/14 04:23:07;;;;;;;9.73;7.50;;;12.60;99.90;;;;;;2082028;28;20033;-70
2022/05/14 04:24:08;;;;;;;11.77;7.15;;;12.60;99.90;;;;;;2081188;28;20104;-70
2022/05/14 04:25:11;;;;;;;14.02;7.70;;;12.60;99.90;;;;;;2081519;28;20033;-70
2022/05/14 04:26:12;;;;;;;12.35;7.18;;;12.60;99.90;;;;;;2081410;28;20017;-70
2022/05/14 04:27:12;;;;;;;10.32;5.97;;;12.60;99.90;;;;;;2082291;28;20026;-70
2022/05/14 04:28:13;;;;;;;12.35;7.25;;;12.60;99.90;;;;;;2081324;28;20029;-70
2022/05/14 04:29:13;;;;;;;12.35;7.00;;;12.70;99.90;;;;;;2082344;28;20052;-70
2022/05/14 04:30:15;;;;;;;12.68;6.85;;;12.70;99.90;;;;;;2082609;28;20025;-70
2022/05/14 04:31:15;;;;;;;8.70;6.70;;;12.70;99.90;;;;;;2081847;28;20032;-70
2022/05/14 04:32:16;;;;;;;11.63;7.28;;;12.60;99.90;;;;;;2081781;28;20049;-71
2022/05/14 04:33:17;;;;;;;15.65;7.32;;;12.70;99.90;;;;;;2085118;28;20548;-71
2022/05/14 04:34:18;;;;;;;11.05;7.28;;;12.70;99.90;;;;;;2080637;28;20025;-70
2022/05/14 04:35:19;;;;;;;12.13;8.02;;;12.70;99.90;;;;;;2081933;28;20037;-70
2022/05/14 04:36:19;;;;;;;12.00;7.85;;;12.70;99.90;;;;;;2082462;28;20408;-70
2022/05/14 04:37:20;;;;;;;12.48;7.90;;;12.70;99.90;;;;;;2081779;28;20029;-70
2022/05/14 04:38:21;;;;;;;11.07;7.80;;;12.70;99.90;;;;;;2083456;28;20055;-70
2022/05/14 04:39:31;;;;;;;15.88;8.82;;;12.70;99.90;;;;;;2084497;28;20038;-70
2022/05/14 04:40:32;;;;;;;;;;;12.80;99.90;;;;;;2082021;28;20029;-71
2022/05/14 04:41:33;;;;;;;12.63;8.30;;;12.70;99.90;;;;;;2081210;28;20360;-70
2022/05/14 04:42:38;;;;;;;11.52;7.90;;;12.70;99.90;;;;;;2083097;28;20028;-70
2022/05/14 04:43:38;;;;;;;12.50;7.32;;;12.70;99.90;;;;;;2080708;28;20024;-71
2022/05/14 04:44:39;;;;;;;15.50;8.55;;;12.80;99.90;;;;;;2080211;28;20033;-71
2022/05/14 04:45:41;;;;;;;13.95;7.93;;;12.80;99.90;;;;;;2082129;28;20041;-70
2022/05/14 04:46:41;;;;;;;13.88;8.73;;;12.80;99.90;;;;;;2085025;28;20039;-70
2022/05/14 04:47:42;;;;;;;14.93;7.80;;;12.80;99.90;;;;;;2081247;28;20039;-71
2022/05/14 04:48:42;;;;;;;10.57;7.20;;;12.90;99.90;;;;;;2082510;28;20112;-70
2022/05/14 04:49:47;;;;;;;12.05;7.05;;;12.90;99.90;;;;;;2073760;28;20021;-70
2022/05/14 04:50:51;;;;;;;8.88;6.32;;;12.90;99.90;;;;;;2073127;28;20025;-70
2022/05/14 04:51:51;;;;;;;10.18;6.22;;;12.90;99.90;;;;;;2080820;28;20021;-70
2022/05/14 04:52:52;;;;;;;12.10;6.82;;;13.00;99.90;;;;;;2081725;28;20485;-70
2022/05/14 04:53:53;;;;;;;12.20;6.35;;;13.00;99.90;;;;;;2082277;28;20036;-71
2022/05/14 04:54:53;;;;;;;10.40;7.07;;;13.00;99.90;;;;;;2081872;28;20025;-71
2022/05/14 04:55:54;;;;;;;11.77;6.60;;;13.10;99.90;;;;;;2081311;28;20029;-71
2022/05/14 04:56:54;;;;;;;10.25;6.35;;;13.10;99.90;;;;;;2081847;28;20086;-70
2022/05/14 04:57:54;;;;;;;9.77;6.32;;;13.20;99.90;;;;;;2081038;28;20022;-70
2022/05/14 04:58:55;;;;;;;14.40;6.75;;;13.20;99.90;;;;;;2082562;28;20512;-70
2022/05/14 04:59:55;;;;;;;10.10;5.78;;;13.20;99.90;;;;;;2082091;28;20021;-70
2022/05/14 05:00:56;;;;;;;13.68;5.80;;;13.30;99.90;;;;;;2082941;28;20039;-70
2022/05/14 05:03:19;;;;;;;12.02;5.80;;;13.40;99.90;;;;;;2081814;28;20033;-70
2022/05/14 05:04:20;;;;;;;10.48;5.97;;;13.40;99.90;;;;;;2080210;28;20053;-71
2022/05/14 05:05:21;;;;;;;10.90;6.10;;;13.50;99.90;;;;;;2080649;28;20029;-71
2022/05/14 05:06:23;;;;;;;9.65;5.05;;;13.50;99.90;;;;;;2081889;28;20026;-70
2022/05/14 05:07:24;;;;;;;8.63;5.13;;;13.60;99.90;;;;;;2080694;28;20040;-70
2022/05/14 05:08:27;;;;;;;8.18;5.35;;;13.60;99.90;;;;;;2083025;28;20037;-70
2022/05/14 05:09:28;;;;;;;9.00;5.60;;;13.70;99.90;;;;;;2081814;28;20079;-70
2022/05/14 05:10:28;;;;;;;10.65;5.32;;;13.80;99.90;;;;;;2083833;28;20079;-70
2022/05/14 05:11:29;;;;;;;12.38;5.40;;;13.80;99.90;;;;;;2079770;28;20029;-70
2022/05/14 05:12:29;;;;;;;10.15;5.85;;;13.90;99.90;;;;;;2080527;28;20504;-70
2022/05/14 05:13:30;;;;;;;12.02;5.40;;;14.00;99.90;;;;;;2082148;28;20472;-70
2022/05/14 05:14:31;;;;;;;11.35;5.20;;;14.10;99.90;;;;;;2080417;28;20104;-70
2022/05/14 05:15:32;;;;;;;12.75;5.07;;;14.20;99.90;;;;;;2079076;28;20033;-70
2022/05/14 05:16:32;;;;;;;11.77;5.60;;;14.30;99.90;;;;;;2078946;28;20033;-70
2022/05/14 05:17:33;;;;;;;13.07;5.65;;;14.40;99.90;;;;;;2078571;28;20105;-70
2022/05/14 05:18:33;;;;;;;9.48;4.70;;;14.40;99.90;;;;;;2080020;28;20017;-70
2022/05/14 05:19:34;;;;;;;9.15;4.95;;;14.50;99.90;;;;;;2080344;28;20025;-70
2022/05/14 05:20:36;;;;;;;11.02;5.45;;;14.60;99.90;;;;;;2080467;28;20028;-70
2022/05/14 05:21:37;;;;;;;7.93;4.60;;;14.70;99.90;;;;;;2079675;28;20043;-70
2022/05/14 05:22:38;;;;;;;8.02;4.45;;;14.80;99.90;;;;;;2080283;28;20025;-70
2022/05/14 05:23:39;;;;;;;9.90;4.68;;;14.90;99.90;;;;;;2078843;28;20109;-70
2022/05/14 05:24:39;;;;;;;10.07;4.47;;;14.90;99.90;;;;;;2080942;28;20037;-70
2022/05/14 05:25:40;;;;;;;11.43;4.20;;;15.00;99.90;;;;;;2079938;28;20116;-70
2022/05/14 05:26:41;;;;;;;8.25;4.10;;;15.10;99.90;;;;;;2078855;28;20033;-71